Time;durP1;ratioP1;P1;durP2;ratioP2;P2;SDS_P1;SDS_P2;PMS_P1;PMS_P2;Temp;Humidity;BMP_temperature;BMP_pressure;BME280_temperature;BME280_humidity;BME280_pressure;Samples;Min_cycle;Max_cycle;Signal;HPM_P1;HPM_P2
2021/11/05 00:02:32;;;;;;;12.23;9.45;;;;;;;2.97;100.00;101355.59;10540045;28;20067;-72
2021/11/05 00:07:33;;;;;;;17.92;10.05;;;;;;;3.14;100.00;101354.81;10559356;28;20043;-72
2021/11/05 00:12:35;;;;;;;12.23;8.70;;;;;;;3.22;100.00;101360.31;10576994;28;20093;-72
2021/11/05 00:17:37;;;;;;;15.60;9.88;;;;;;;3.18;100.00;101364.41;10582750;28;20101;-73
2021/11/05 00:22:38;;;;;;;13.07;8.05;;;;;;;3.82;100.00;101363.41;10578660;28;20047;-72
2021/11/05 00:27:40;;;;;;;11.45;8.32;;;;;;;3.61;100.00;101373.41;10558325;28;20419;-72
2021/11/05 00:32:43;;;;;;;11.40;9.13;;;;;;;3.85;100.00;101378.91;10540332;28;20056;-72
2021/11/05 00:37:44;;;;;;;10.23;7.43;;;;;;;3.77;100.00;101387.88;10561382;28;20052;-72
2021/11/05 00:42:46;;;;;;;11.98;6.95;;;;;;;4.20;100.00;101383.25;10556543;28;20514;-72
2021/11/05 00:47:47;;;;;;;12.27;7.90;;;;;;;4.33;100.00;101388.16;10537929;28;20052;-72
2021/11/05 00:52:49;;;;;;;10.88;7.75;;;;;;;4.17;100.00;101393.31;10560010;28;20058;-72
2021/11/05 00:57:51;;;;;;;16.15;7.72;;;;;;;4.15;100.00;101400.06;10560715;28;20051;-72
2021/11/05 01:02:52;;;;;;;13.25;8.82;;;;;;;4.09;100.00;101400.63;10538356;28;20067;-72
2021/11/05 01:07:54;;;;;;;14.27;8.23;;;;;;;4.05;100.00;101397.84;10559955;28;20051;-72
2021/11/05 01:12:56;;;;;;;14.00;7.25;;;;;;;4.29;100.00;101406.72;10553245;28;20454;-72
2021/11/05 01:17:57;;;;;;;11.73;7.60;;;;;;;4.21;100.00;101421.72;10572263;28;20092;-72
2021/11/05 01:22:59;;;;;;;12.32;6.93;;;;;;;4.08;100.00;101427.00;10579704;28;20056;-72
2021/11/05 01:28:01;;;;;;;9.52;4.78;;;;;;;4.37;100.00;101436.16;10578370;28;20052;-72
2021/11/05 01:33:07;;;;;;;9.50;4.75;;;;;;;4.25;100.00;101443.22;10560164;28;20512;-72
2021/11/05 01:38:09;;;;;;;8.32;4.65;;;;;;;4.31;100.00;101440.06;10537312;28;20040;-72
2021/11/05 01:43:12;;;;;;;6.13;4.25;;;;;;;4.41;100.00;101455.09;10537299;28;20048;-72
2021/11/05 01:48:15;;;;;;;10.02;4.57;;;;;;;4.29;100.00;101459.63;10538507;28;20060;-73
2021/11/05 01:53:17;;;;;;;8.57;4.55;;;;;;;4.44;100.00;101460.38;10578748;28;20047;-73
2021/11/05 01:58:20;;;;;;;11.77;5.57;;;;;;;4.20;100.00;101465.19;10569482;28;20051;-73
2021/11/05 02:03:22;;;;;;;7.93;4.57;;;;;;;4.22;100.00;101474.69;10536404;28;20058;-73
2021/11/05 02:08:23;;;;;;;11.68;4.22;;;;;;;4.30;100.00;101475.06;10559793;28;20048;-72
2021/11/05 02:13:27;;;;;;;11.68;4.35;;;;;;;4.12;100.00;101485.25;10548142;28;20048;-72
2021/11/05 02:18:29;;;;;;;9.52;4.40;;;;;;;4.26;100.00;101485.97;10578054;28;20044;-72
2021/11/05 02:23:31;;;;;;;7.93;3.13;;;;;;;4.26;100.00;101491.09;10576474;28;20541;-72
2021/11/05 02:28:37;;;;;;;4.90;2.70;;;;;;;4.63;100.00;101495.47;10576957;28;20044;-73
2021/11/05 02:33:38;;;;;;;9.10;2.77;;;;;;;4.40;100.00;101500.31;10577588;28;20067;-73
2021/11/05 02:38:41;;;;;;;5.00;2.95;;;;;;;4.37;100.00;101502.75;10577001;28;20052;-73
2021/11/05 02:43:44;;;;;;;5.97;2.47;;;;;;;4.33;100.00;101513.63;10577806;28;20097;-72
2021/11/05 02:48:45;;;;;;;6.90;2.05;;;;;;;4.38;100.00;101516.44;10576939;28;20044;-72
2021/11/05 02:53:47;;;;;;;4.40;2.53;;;;;;;4.30;100.00;101528.84;10576881;28;20419;-72
2021/11/05 02:58:50;;;;;;;3.85;2.40;;;;;;;4.11;100.00;101528.69;10548959;28;20403;-73
2021/11/05 03:03:52;;;;;;;9.55;3.10;;;;;;;4.23;100.00;101535.31;10535563;28;20052;-73
2021/11/05 03:08:53;;;;;;;7.90;2.85;;;;;;;4.15;100.00;101540.88;10565496;28;20043;-76
2021/11/05 03:13:54;;;;;;;7.10;3.45;;;;;;;4.48;100.00;101549.38;10540843;28;20051;-77
2021/11/05 03:18:56;;;;;;;8.15;3.35;;;;;;;4.28;100.00;101552.63;10559776;28;20499;-76
2021/11/05 03:23:58;;;;;;;8.15;4.10;;;;;;;4.17;100.00;101559.75;10579424;28;20047;-76
2021/11/05 03:29:03;;;;;;;5.80;3.92;;;;;;;4.28;100.00;101562.88;10583558;28;20047;-76
2021/11/05 03:34:05;;;;;;;10.52;5.30;;;;;;;4.24;100.00;101575.50;10583526;28;20491;-77
2021/11/05 03:39:07;;;;;;;9.60;4.60;;;;;;;4.19;100.00;101564.13;10583573;28;20048;-77
2021/11/05 03:44:09;;;;;;;16.83;4.97;;;;;;;3.91;100.00;101589.06;10582210;28;20051;-77
2021/11/05 03:49:10;;;;;;;11.07;5.18;;;;;;;3.85;100.00;101597.28;10583497;28;20048;-77
2021/11/05 03:54:12;;;;;;;10.70;5.35;;;;;;;3.63;100.00;101599.47;10581804;28;20059;-73
2021/11/05 03:59:14;;;;;;;7.10;4.65;;;;;;;3.66;100.00;101612.47;10564911;28;20059;-73
2021/11/05 04:04:16;;;;;;;11.85;5.35;;;;;;;3.62;100.00;101619.06;10546345;28;20553;-73
2021/11/05 04:09:18;;;;;;;13.10;5.57;;;;;;;3.67;100.00;101629.56;10578778;28;20043;-77
2021/11/05 04:14:20;;;;;;;8.25;5.22;;;;;;;3.90;100.00;101635.94;10543180;28;20471;-77
2021/11/05 04:19:22;;;;;;;13.98;6.10;;;;;;;3.92;100.00;101639.47;10577179;28;20051;-77
2021/11/05 04:24:23;;;;;;;12.05;8.10;;;;;;;3.85;100.00;101645.03;10581452;28;20514;-77
2021/11/05 04:29:26;;;;;;;20.30;9.80;;;;;;;3.75;100.00;101653.91;10582662;28;20097;-77
2021/11/05 04:34:28;;;;;;;15.60;10.60;;;;;;;3.60;100.00;101661.59;10580850;28;20052;-76
2021/11/05 04:39:29;;;;;;;18.80;12.20;;;;;;;3.67;100.00;101660.25;10551783;28;20055;-77
2021/11/05 04:44:31;;;;;;;15.35;9.70;;;;;;;3.76;100.00;101672.69;10539835;28;20055;-77
2021/11/05 04:49:32;;;;;;;23.23;12.35;;;;;;;3.66;100.00;101682.41;10538020;28;20054;-77
2021/11/05 04:54:34;;;;;;;20.08;11.55;;;;;;;3.50;100.00;101687.47;10539392;28;20062;-77
2021/11/05 04:59:37;;;;;;;18.95;11.02;;;;;;;3.45;100.00;101691.41;10537612;28;20048;-77
2021/11/05 05:04:38;;;;;;;23.60;12.00;;;;;;;3.24;100.00;101697.88;10538683;28;20071;-75
2021/11/05 05:09:40;;;;;;;14.80;10.32;;;;;;;3.17;100.00;101706.84;10573924;28;20048;-77
2021/11/05 05:14:41;;;;;;;13.63;8.88;;;;;;;3.10;100.00;101717.50;10537734;28;20047;-77
2021/11/05 05:19:43;;;;;;;17.50;10.55;;;;;;;2.83;100.00;101722.72;10538268;28;20048;-77
2021/11/05 05:24:45;;;;;;;18.30;11.60;;;;;;;2.78;100.00;101730.91;10536935;28;20047;-74
2021/11/05 05:29:48;;;;;;;14.90;10.15;;;;;;;2.60;100.00;101739.22;10536771;28;20044;-74
2021/11/05 05:34:50;;;;;;;10.45;8.80;;;;;;;2.50;100.00;101742.03;10536314;28;20056;-74
2021/11/05 05:39:51;;;;;;;13.35;8.43;;;;;;;2.35;100.00;101752.16;10536298;28;20040;-74
2021/11/05 05:44:53;;;;;;;12.50;7.55;;;;;;;2.32;100.00;101748.53;10536468;28;20110;-74
2021/11/05 05:49:54;;;;;;;7.38;6.00;;;;;;;2.14;100.00;101755.91;10545638;28;20051;-74
2021/11/05 05:54:56;;;;;;;12.57;6.75;;;;;;;2.24;100.00;101772.69;10560065;28;20423;-73
2021/11/05 05:59:59;;;;;;;7.18;5.60;;;;;;;2.18;100.00;101775.75;10568023;28;20048;-74
2021/11/05 06:05:01;;;;;;;7.80;5.88;;;;;;;2.05;100.00;101775.75;10559321;28;20139;-74
2021/11/05 06:10:04;;;;;;;42.40;8.82;;;;;;;2.24;100.00;101791.44;10572616;28;20051;-74
2021/11/05 06:15:06;;;;;;;69.70;12.27;;;;;;;2.20;100.00;101793.69;10576791;28;20055;-74
2021/11/05 06:20:08;;;;;;;23.90;8.07;;;;;;;2.09;100.00;101798.13;10576378;28;20044;-74
2021/11/05 06:25:10;;;;;;;13.25;7.38;;;;;;;2.03;100.00;101800.28;10577665;28;20334;-73
2021/11/05 06:30:12;;;;;;;16.98;7.10;;;;;;;1.99;100.00;101811.97;10576078;28;20040;-76
2021/11/05 06:35:14;;;;;;;8.77;5.72;;;;;;;1.86;100.00;101824.69;10556848;28;20056;-75
2021/11/05 06:40:15;;;;;;;24.45;8.13;;;;;;;1.77;100.00;101835.19;10537210;28;20051;-74
2021/11/05 06:45:17;;;;;;;6.70;5.95;;;;;;;1.69;100.00;101846.53;10535137;28;20066;-74
2021/11/05 06:50:18;;;;;;;18.77;7.25;;;;;;;1.79;100.00;101856.56;10542312;28;20043;-74
2021/11/05 06:55:20;;;;;;;6.78;5.72;;;;;;;1.76;100.00;101875.88;10564878;28;20060;-74
2021/11/05 07:00:21;;;;;;;10.27;7.00;;;;;;;1.77;100.00;101873.44;10571687;28;20039;-74
2021/11/05 07:05:24;;;;;;;14.27;7.05;;;;;;;1.80;100.00;101885.50;10559818;28;20130;-75
2021/11/05 07:10:25;;;;;;;33.92;9.80;;;;;;;1.89;100.00;101885.25;10572276;28;20048;-77
2021/11/05 07:15:27;;;;;;;19.38;7.45;;;;;;;1.93;100.00;101894.84;10571236;28;20411;-76
2021/11/05 07:20:29;;;;;;;15.65;8.23;;;;;;;2.05;100.00;101911.00;10574248;28;20051;-77
2021/11/05 07:25:31;;;;;;;118.50;16.80;;;;;;;2.14;100.00;101916.69;10575146;28;20059;-77
2021/11/05 07:30:33;;;;;;;51.90;14.40;;;;;;;2.21;100.00;101917.97;10567308;28;20059;-75
2021/11/05 07:35:35;;;;;;;53.60;14.60;;;;;;;2.39;100.00;101931.97;10555827;28;20051;-76
2021/11/05 07:40:36;;;;;;;31.52;10.88;;;;;;;2.41;100.00;101938.06;10560149;28;20135;-75
2021/11/05 07:45:38;;;;;;;31.73;12.30;;;;;;;2.48;100.00;101944.44;10552640;28;20055;-75
2021/11/05 07:50:39;;;;;;;35.38;13.07;;;;;;;2.58;100.00;101940.03;10569777;28;20047;-75
2021/11/05 07:55:41;;;;;;;27.45;12.13;;;;;;;2.66;100.00;101958.38;10558477;28;20403;-77
2021/11/05 08:00:42;;;;;;;30.17;12.23;;;;;;;2.80;100.00;101962.72;10574711;28;20048;-77
2021/11/05 08:05:47;;;;;;;20.38;11.70;;;;;;;3.04;100.00;101971.06;10569347;28;20048;-78
2021/11/05 08:10:49;;;;;;;19.60;14.27;;;;;;;3.12;100.00;101977.56;10568320;28;20054;-78
2021/11/05 08:15:50;;;;;;;18.33;14.52;;;;;;;3.55;100.00;101984.44;10537809;28;20055;-78
2021/11/05 08:20:52;;;;;;;22.50;15.63;;;;;;;3.83;100.00;101982.78;10571356;28;20048;-78
2021/11/05 08:25:54;;;;;;;21.98;15.60;;;;;;;4.25;100.00;101992.16;10566753;28;20059;-78
2021/11/05 08:30:56;;;;;;;21.40;13.95;;;;;;;5.02;100.00;101994.84;10553560;28;20484;-78
2021/11/05 08:35:57;;;;;;;19.80;11.75;;;;;;;4.87;100.00;101999.09;10554139;28;20058;-79
2021/11/05 08:40:59;;;;;;;24.10;15.57;;;;;;;5.05;100.00;102006.97;10583219;28;20047;-78
2021/11/05 08:46:04;;;;;;;23.10;13.55;;;;;;;5.28;100.00;102014.25;10554412;28;20101;-79
2021/11/05 08:51:10;;;;;;;24.10;13.15;;;;;;;5.46;100.00;102022.06;10539224;28;20052;-78
2021/11/05 08:56:12;;;;;;;29.80;17.30;;;;;;;5.66;100.00;102025.69;10553594;28;20055;-78
2021/11/05 09:01:15;;;;;;;32.15;18.17;;;;;;;5.79;100.00;102032.38;10560368;28;20301;-79
2021/11/05 09:06:17;;;;;;;31.10;19.30;;;;;;;5.89;100.00;102034.63;10553843;28;20412;-78
2021/11/05 09:11:19;;;;;;;43.95;21.95;;;;;;;6.06;100.00;102038.09;10563774;28;20491;-78
2021/11/05 09:16:20;;;;;;;33.10;19.13;;;;;;;6.29;100.00;102047.00;10558270;28;20500;-78
2021/11/05 09:21:22;;;;;;;40.75;20.48;;;;;;;6.49;100.00;102048.91;10580537;28;20051;-78
2021/11/05 09:26:24;;;;;;;36.90;19.77;;;;;;;6.70;100.00;102056.84;10578343;28;20495;-78
2021/11/05 09:31:26;;;;;;;27.83;14.90;;;;;;;6.80;100.00;102053.03;10581420;28;20040;-78
2021/11/05 09:36:27;;;;;;;24.00;14.48;;;;;;;7.07;100.00;102058.66;10578328;28;20096;-77
2021/11/05 09:41:29;;;;;;;38.30;18.73;;;;;;;7.08;100.00;102066.44;10544938;28;20047;-77
2021/11/05 09:46:32;;;;;;;37.00;21.33;;;;;;;7.30;100.00;102077.75;10575583;28;20068;-77
2021/11/05 09:51:34;;;;;;;36.88;19.20;;;;;;;7.41;100.00;102090.34;10577673;28;20051;-77
2021/11/05 09:56:37;;;;;;;39.80;20.60;;;;;;;7.46;100.00;102095.72;10580263;28;20055;-77
2021/11/05 10:01:43;;;;;;;38.40;21.58;;;;;;;7.41;100.00;102104.91;10556470;28;20396;-74
2021/11/05 10:07:00;;;;;;;35.13;20.50;;;;;;;7.48;100.00;102108.66;10554606;28;20048;-74
2021/11/05 10:12:14;;;;;;;38.88;22.45;;;;;;;7.61;100.00;102108.44;10552035;28;20530;-73
2021/11/05 10:17:16;;;;;;;36.20;22.55;;;;;;;7.78;100.00;102128.16;10555439;28;20529;-74
2021/11/05 10:22:52;;;;;;;22.10;11.20;;;;;;;7.97;100.00;102123.03;10565990;28;20058;-74
2021/11/05 10:28:08;;;;;;;14.93;7.20;;;;;;;8.23;100.00;102119.06;10505382;28;20051;-74
2021/11/05 10:33:12;;;;;;;22.42;14.52;;;;;;;8.72;100.00;102128.97;10549990;28;20043;-73
2021/11/05 10:38:14;;;;;;;22.73;7.97;;;;;;;9.13;100.00;102135.03;10562161;28;20044;-73
2021/11/05 10:43:29;;;;;;;21.13;12.90;;;;;;;10.24;100.00;102120.44;10560345;28;20055;-73
2021/11/05 10:48:35;;;;;;;18.70;13.93;;;;;;;10.09;100.00;102112.06;10555787;28;20055;-73
2021/11/05 10:53:42;;;;;;;9.17;6.60;;;;;;;10.47;100.00;102128.16;10555133;28;20050;-72
2021/11/05 10:58:52;;;;;;;;;;;;;;;11.31;100.00;102124.16;10585707;28;20277;-72
2021/11/05 11:03:59;;;;;;;9.68;6.38;;;;;;;10.81;100.00;102133.69;10547915;28;19923;-73
2021/11/05 11:09:08;;;;;;;11.38;5.35;;;;;;;10.52;100.00;102136.97;10565603;28;20039;-73
2021/11/05 11:14:16;;;;;;;5.28;3.40;;;;;;;11.08;100.00;102128.59;10566403;28;20044;-72
2021/11/05 11:19:20;;;;;;;16.30;3.25;;;;;;;11.73;99.93;102138.41;10583009;28;20087;-77
2021/11/05 11:24:28;;;;;;;8.63;2.67;;;;;;;12.26;98.31;102134.00;10583630;28;20109;-78
2021/11/05 11:29:29;;;;;;;5.55;2.10;;;;;;;11.13;96.21;102134.78;10562789;28;20046;-77
2021/11/05 11:34:31;;;;;;;10.80;1.92;;;;;;;11.26;99.53;102135.19;10583581;28;20052;-78
2021/11/05 11:39:33;;;;;;;4.22;1.08;;;;;;;10.66;100.00;102145.22;10570163;28;20048;-73
2021/11/05 11:44:36;;;;;;;6.25;1.77;;;;;;;10.59;100.00;102151.88;10549185;28;20048;-73
2021/11/05 11:49:38;;;;;;;8.82;2.03;;;;;;;10.53;100.00;102143.91;10575030;28;20054;-73
2021/11/05 11:54:42;;;;;;;2.67;1.23;;;;;;;10.46;100.00;102152.28;10569270;28;20056;-73
2021/11/05 11:59:46;;;;;;;9.65;2.13;;;;;;;10.34;100.00;102158.75;10573523;28;20090;-78
2021/11/05 12:04:47;;;;;;;10.77;2.42;;;;;;;10.20;100.00;102162.47;10553366;28;20055;-79
2021/11/05 12:09:49;;;;;;;6.90;1.45;;;;;;;10.14;100.00;102163.97;10544716;28;20392;-78
2021/11/05 12:15:00;;;;;;;5.53;2.63;;;;;;;10.08;100.00;102164.63;10539286;28;20048;-78
2021/11/05 12:20:23;;;;;;;8.20;1.63;;;;;;;9.99;100.00;102172.91;10540828;28;20040;-79
2021/11/05 12:25:27;;;;;;;2.13;1.13;;;;;;;9.98;100.00;102175.41;10541590;28;20055;-78
2021/11/05 12:30:29;;;;;;;6.45;1.30;;;;;;;9.85;100.00;102181.81;10544226;28;20052;-78
2021/11/05 12:35:32;;;;;;;3.45;0.73;;;;;;;9.86;100.00;102190.44;10551709;28;20052;-78
2021/11/05 12:40:42;;;;;;;3.25;0.82;;;;;;;9.76;100.00;102205.63;10544569;28;20051;-79
2021/11/05 12:45:53;;;;;;;2.90;0.82;;;;;;;9.78;100.00;102210.84;10567154;28;20273;-78
2021/11/05 12:50:57;;;;;;;3.33;1.20;;;;;;;9.72;100.00;102221.81;10539718;28;20048;-78
2021/11/05 12:55:59;;;;;;;2.20;0.95;;;;;;;9.61;100.00;102224.78;10561890;28;20143;-79
2021/11/05 13:01:01;;;;;;;3.53;1.00;;;;;;;9.61;100.00;102222.19;10543650;28;20055;-79
2021/11/05 13:06:02;;;;;;;4.90;1.50;;;;;;;9.65;100.00;102217.22;10550235;28;20052;-79
2021/11/05 13:11:06;;;;;;;2.63;0.80;;;;;;;9.69;100.00;102225.97;10549391;28;20059;-79
2021/11/05 13:16:13;;;;;;;2.33;0.93;;;;;;;9.75;100.00;102218.44;10565715;28;20416;-79
2021/11/05 13:21:23;;;;;;;4.85;1.00;;;;;;;9.73;100.00;102218.41;10545900;28;20510;-79
2021/11/05 13:26:29;;;;;;;4.65;0.90;;;;;;;9.69;100.00;102219.09;10557274;28;20137;-79
2021/11/05 13:31:30;;;;;;;2.13;0.95;;;;;;;9.53;100.00;102208.97;10559704;28;20609;-79
2021/11/05 13:36:32;;;;;;;2.80;0.93;;;;;;;9.55;100.00;102225.41;10558412;28;20054;-79
2021/11/05 13:41:37;;;;;;;3.78;1.13;;;;;;;9.72;100.00;102226.97;10568618;28;20043;-79
2021/11/05 13:46:39;;;;;;;7.10;0.93;;;;;;;9.68;100.00;102238.00;10579305;28;20396;-79
2021/11/05 13:51:40;;;;;;;3.92;1.15;;;;;;;9.71;100.00;102237.25;10577768;28;20430;-79
2021/11/05 13:56:45;;;;;;;2.53;0.77;;;;;;;9.80;99.99;102237.63;10572824;28;20063;-79
2021/11/05 14:01:50;;;;;;;2.70;1.15;;;;;;;9.77;100.00;102240.09;10573413;28;20047;-79
2021/11/05 14:06:54;;;;;;;3.45;1.13;;;;;;;9.83;100.00;102243.81;10549982;28;20048;-79
2021/11/05 14:11:58;;;;;;;5.20;1.38;;;;;;;9.86;100.00;102247.31;10549833;28;20511;-79
2021/11/05 14:17:11;;;;;;;4.25;1.40;;;;;;;10.05;100.00;102250.72;10563804;28;20044;-73
2021/11/05 14:22:13;;;;;;;2.83;1.05;;;;;;;9.98;100.00;102251.31;10550227;28;20116;-73
2021/11/05 14:27:25;;;;;;;5.82;1.05;;;;;;;10.02;98.42;102257.47;10566258;28;20060;-74
2021/11/05 14:32:38;;;;;;;6.15;1.50;;;;;;;9.97;99.19;102259.84;10561251;28;20036;-73
2021/11/05 14:37:53;;;;;;;2.47;1.25;;;;;;;9.79;100.00;102262.56;10544753;28;20404;-73
2021/11/05 14:43:08;;;;;;;3.03;1.65;;;;;;;9.77;100.00;102259.06;10556701;28;20050;-74
2021/11/05 14:48:19;;;;;;;3.75;1.10;;;;;;;9.83;100.00;102268.78;10534461;28;20052;-74
2021/11/05 14:53:29;;;;;;;4.63;0.95;;;;;;;9.78;100.00;102273.75;10573440;28;20051;-74
2021/11/05 14:58:37;;;;;;;6.28;1.38;;;;;;;9.93;100.00;102278.66;10577417;28;20055;-74
2021/11/05 15:03:47;;;;;;;4.15;0.93;;;;;;;9.80;100.00;102285.00;10551967;28;20039;-74
2021/11/05 15:08:49;;;;;;;5.40;1.38;;;;;;;9.85;100.00;102289.50;10572135;28;20055;-73
2021/11/05 15:13:53;;;;;;;5.43;0.80;;;;;;;9.70;100.00;102298.41;10538689;28;20040;-74
2021/11/05 15:18:58;;;;;;;8.23;1.50;;;;;;;9.64;100.00;102304.97;10535542;28;20056;-74
2021/11/05 15:24:03;;;;;;;4.45;1.60;;;;;;;9.43;100.00;102305.84;10563689;28;20456;-74
2021/11/05 15:29:04;;;;;;;9.00;1.50;;;;;;;9.34;100.00;102309.72;10558950;28;20051;-74
2021/11/05 15:34:06;;;;;;;5.45;1.05;;;;;;;9.29;100.00;102310.41;10557540;28;20051;-74
2021/11/05 15:39:07;;;;;;;5.43;1.33;;;;;;;9.14;100.00;102320.09;10578642;28;20052;-74
2021/11/05 15:44:09;;;;;;;4.45;0.80;;;;;;;9.06;100.00;102321.41;10569703;28;20059;-73
2021/11/05 15:49:10;;;;;;;4.07;1.40;;;;;;;9.03;100.00;102324.75;10565484;28;20051;-74
2021/11/05 15:54:12;;;;;;;3.28;1.58;;;;;;;8.96;100.00;102329.56;10579279;28;20064;-74
2021/11/05 15:59:14;;;;;;;3.60;1.77;;;;;;;8.94;100.00;102332.06;10583067;28;20422;-74
2021/11/05 16:04:15;;;;;;;6.13;1.30;;;;;;;8.94;100.00;102333.78;10570938;28;20078;-74
2021/11/05 16:09:17;;;;;;;4.63;1.15;;;;;;;8.63;100.00;102345.28;10579205;28;20521;-74
2021/11/05 16:14:19;;;;;;;5.93;1.20;;;;;;;8.77;100.00;102345.91;10567044;28;20100;-74
2021/11/05 16:19:21;;;;;;;5.15;1.05;;;;;;;8.77;100.00;102349.38;10567120;28;20063;-74
2021/11/05 16:24:24;;;;;;;3.90;1.33;;;;;;;8.70;100.00;102364.50;10556932;28;20058;-74
2021/11/05 16:29:26;;;;;;;3.65;1.17;;;;;;;8.58;100.00;102372.53;10571182;28;20075;-74
2021/11/05 16:34:27;;;;;;;3.45;1.23;;;;;;;8.55;100.00;102390.44;10579082;28;20043;-74
2021/11/05 16:39:29;;;;;;;4.57;1.50;;;;;;;8.53;100.00;102392.06;10554547;28;20054;-73
2021/11/05 16:44:31;;;;;;;2.50;1.40;;;;;;;8.47;100.00;102397.81;10538647;28;20056;-74
2021/11/05 16:49:34;;;;;;;7.20;1.60;;;;;;;8.51;100.00;102398.88;10571475;28;20484;-74
2021/11/05 16:54:36;;;;;;;9.32;1.55;;;;;;;8.58;100.00;102402.63;10562613;28;20058;-74
2021/11/05 16:59:38;;;;;;;5.32;1.60;;;;;;;8.48;100.00;102409.00;10579370;28;20087;-74
2021/11/05 17:04:42;;;;;;;5.07;1.98;;;;;;;8.52;100.00;102410.94;10551895;28;20058;-74
2021/11/05 17:09:44;;;;;;;3.08;1.13;;;;;;;8.64;100.00;102418.38;10565673;28;20419;-72
2021/11/05 17:14:46;;;;;;;6.70;1.73;;;;;;;8.52;100.00;102428.13;10561047;28;20135;-74
2021/11/05 17:19:47;;;;;;;5.57;1.90;;;;;;;8.42;100.00;102437.09;10562313;28;20050;-74
2021/11/05 17:24:50;;;;;;;5.32;2.40;;;;;;;8.23;100.00;102445.56;10560834;28;20052;-74
2021/11/05 17:29:51;;;;;;;3.72;2.08;;;;;;;8.30;100.00;102447.66;10556213;28;20079;-74
2021/11/05 17:34:55;;;;;;;5.10;2.40;;;;;;;8.29;100.00;102445.88;10578119;28;20052;-73
2021/11/05 17:39:56;;;;;;;6.90;3.10;;;;;;;8.32;100.00;102451.16;10578339;28;20073;-74
2021/11/05 17:44:58;;;;;;;4.05;2.15;;;;;;;8.32;100.00;102458.03;10579214;28;20066;-74
2021/11/05 17:50:00;;;;;;;9.85;3.17;;;;;;;8.30;100.00;102459.66;10563612;28;20044;-73
2021/11/05 17:55:03;;;;;;;5.38;2.90;;;;;;;8.34;100.00;102462.47;10576532;28;20051;-73
2021/11/05 18:00:11;;;;;;;3.92;2.90;;;;;;;8.28;100.00;102461.25;10560927;28;20051;-74
2021/11/05 18:05:14;;;;;;;7.30;2.03;;;;;;;8.25;100.00;102462.00;10537150;28;20048;-73
2021/11/05 18:10:15;;;;;;;6.43;2.10;;;;;;;8.31;100.00;102458.84;10557553;28;20584;-73
2021/11/05 18:15:17;;;;;;;6.35;1.70;;;;;;;8.20;100.00;102466.03;10556844;28;20101;-74
2021/11/05 18:20:18;;;;;;;6.55;2.42;;;;;;;8.11;100.00;102468.13;10546902;28;20052;-74
2021/11/05 18:25:20;;;;;;;5.75;2.35;;;;;;;8.05;100.00;102476.44;10548349;28;20515;-73
2021/11/05 18:30:21;;;;;;;7.38;2.65;;;;;;;7.97;100.00;102485.47;10535857;28;20436;-74
2021/11/05 18:35:23;;;;;;;2.30;2.10;;;;;;;7.80;100.00;102478.56;10533965;28;20484;-74
2021/11/05 18:40:26;;;;;;;4.80;1.60;;;;;;;7.77;100.00;102492.19;10546009;28;20052;-74
2021/11/05 18:45:34;;;;;;;5.28;2.13;;;;;;;7.59;100.00;102501.47;10555958;28;20098;-74
2021/11/05 18:50:39;;;;;;;6.93;2.95;;;;;;;7.42;100.00;102506.59;10561243;28;20541;-74
2021/11/05 18:55:41;;;;;;;9.65;5.13;;;;;;;7.25;100.00;102509.06;10559726;28;20062;-72
2021/11/05 19:00:46;;;;;;;7.30;3.65;;;;;;;7.33;100.00;102507.81;10566802;28;20040;-74
2021/11/05 19:05:51;;;;;;;9.85;3.35;;;;;;;7.25;100.00;102511.63;10583649;28;20055;-74
2021/11/05 19:10:56;;;;;;;7.93;2.80;;;;;;;7.17;100.00;102511.22;10567768;28;20523;-74
2021/11/05 19:16:00;;;;;;;8.77;3.83;;;;;;;7.00;100.00;102518.00;10575997;28;20043;-74
2021/11/05 19:21:02;;;;;;;11.23;3.40;;;;;;;7.03;100.00;102519.84;10581071;28;20141;-74
2021/11/05 19:26:04;;;;;;;6.97;4.63;;;;;;;6.90;100.00;102529.44;10571466;28;20142;-74
2021/11/05 19:31:07;;;;;;;9.90;3.72;;;;;;;6.88;100.00;102532.75;10579249;28;20054;-74
2021/11/05 19:36:09;;;;;;;6.35;3.92;;;;;;;6.81;100.00;102528.06;10578556;28;20054;-74
2021/11/05 19:41:14;;;;;;;6.20;4.00;;;;;;;6.66;100.00;102535.75;10578973;28;20039;-74
2021/11/05 19:46:15;;;;;;;8.05;3.40;;;;;;;6.76;100.00;102539.75;10571350;28;20086;-74
2021/11/05 19:51:17;;;;;;;13.48;3.13;;;;;;;6.64;100.00;102542.50;10580625;28;20048;-74
2021/11/05 19:56:18;;;;;;;9.65;3.17;;;;;;;6.54;100.00;102545.34;10580520;28;20056;-73
2021/11/05 20:01:20;;;;;;;4.03;2.75;;;;;;;6.54;100.00;102551.34;10573682;28;20047;-74
2021/11/05 20:06:21;;;;;;;8.15;3.65;;;;;;;6.81;100.00;102553.78;10576748;28;20048;-74
2021/11/05 20:11:23;;;;;;;7.28;2.85;;;;;;;6.59;100.00;102556.78;10575914;28;20048;-74
2021/11/05 20:16:29;;;;;;;5.55;2.78;;;;;;;6.43;100.00;102567.84;10576433;28;20147;-72
2021/11/05 20:21:30;;;;;;;10.10;3.70;;;;;;;6.43;100.00;102566.94;10571691;28;20040;-72
2021/11/05 20:26:33;;;;;;;8.27;4.18;;;;;;;6.30;100.00;102563.66;10577184;28;20059;-72
2021/11/05 20:31:34;;;;;;;6.20;4.15;;;;;;;6.47;100.00;102567.22;10572630;28;20043;-72
2021/11/05 20:36:40;;;;;;;7.28;4.03;;;;;;;6.34;100.00;102568.16;10572065;28;20055;-72
2021/11/05 20:41:42;;;;;;;5.83;3.87;;;;;;;6.41;100.00;102573.66;10554363;28;20040;-72
2021/11/05 20:46:44;;;;;;;15.32;5.22;;;;;;;6.29;100.00;102577.28;10539665;28;20086;-72
2021/11/05 20:51:46;;;;;;;6.85;4.53;;;;;;;6.09;100.00;102594.06;10537993;28;20047;-72
2021/11/05 20:56:47;;;;;;;10.95;4.85;;;;;;;6.11;100.00;102589.00;10535401;28;20527;-73
2021/11/05 21:01:49;;;;;;;6.10;4.50;;;;;;;6.19;100.00;102592.06;10550954;28;20059;-72
2021/11/05 21:06:50;;;;;;;5.43;4.32;;;;;;;6.28;100.00;102597.75;10569800;28;20043;-72
2021/11/05 21:11:52;;;;;;;6.47;4.18;;;;;;;6.22;100.00;102603.41;10555083;28;20487;-73
2021/11/05 21:16:53;;;;;;;8.40;5.18;;;;;;;6.31;100.00;102603.09;10536712;28;20051;-73
2021/11/05 21:21:55;;;;;;;9.50;4.90;;;;;;;6.09;100.00;102601.78;10536958;28;20048;-72
2021/11/05 21:26:56;;;;;;;7.20;4.13;;;;;;;6.05;100.00;102604.06;10538271;28;20492;-73
2021/11/05 21:31:58;;;;;;;13.43;5.38;;;;;;;6.06;100.00;102595.53;10550749;28;20407;-72
2021/11/05 21:37:00;;;;;;;8.95;4.88;;;;;;;6.10;100.00;102592.38;10578247;28;20504;-73
2021/11/05 21:42:02;;;;;;;6.82;4.55;;;;;;;6.08;100.00;102601.69;10536436;28;20044;-72
2021/11/05 21:47:04;;;;;;;6.53;4.45;;;;;;;6.24;100.00;102594.13;10538370;28;20055;-73
2021/11/05 21:52:06;;;;;;;10.15;5.43;;;;;;;6.23;100.00;102594.00;10578445;28;20043;-72
2021/11/05 21:57:07;;;;;;;16.15;6.53;;;;;;;6.23;100.00;102583.72;10578627;28;20059;-73
2021/11/05 22:02:09;;;;;;;8.23;5.47;;;;;;;6.15;100.00;102593.56;10578927;28;20055;-73
2021/11/05 22:07:12;;;;;;;9.70;5.88;;;;;;;6.18;100.00;102592.84;10562673;28;20143;-72
2021/11/05 22:12:13;;;;;;;15.68;5.95;;;;;;;6.09;100.00;102583.78;10540545;28;20058;-72
2021/11/05 22:17:15;;;;;;;8.90;5.28;;;;;;;6.03;100.00;102595.38;10556132;28;20105;-73
2021/11/05 22:22:17;;;;;;;10.15;5.50;;;;;;;6.10;100.00;102580.41;10577249;28;20054;-73
2021/11/05 22:27:20;;;;;;;10.35;5.15;;;;;;;6.11;100.00;102591.59;10577479;28;20051;-73
2021/11/05 22:32:27;;;;;;;11.00;5.50;;;;;;;6.10;100.00;102598.41;10576108;28;20040;-75
2021/11/05 22:37:32;;;;;;;8.38;4.72;;;;;;;6.05;100.00;102601.47;10540148;28;20048;-73
2021/11/05 22:42:54;;;;;;;10.15;5.03;;;;;;;6.02;100.00;102599.63;10535717;28;20071;-73
2021/11/05 22:47:55;;;;;;;11.80;5.88;;;;;;;5.95;100.00;102600.03;10534413;28;20055;-75
2021/11/05 22:53:01;;;;;;;6.97;5.50;;;;;;;5.89;100.00;102589.34;10534317;28;20040;-75
2021/11/05 22:58:04;;;;;;;10.68;5.35;;;;;;;5.72;100.00;102600.22;10535328;28;20063;-75
2021/11/05 23:03:15;;;;;;;9.38;5.18;;;;;;;5.74;100.00;102607.25;10535910;28;20055;-75